Hoegh Transporter — LAKO7 — position and weather

sailwx.info

Track history (hours):
 
Tides and Currents Weather Stations Pressure Air Temp Water Temp Dewpoint Dewpoint Depression Visibility Wind Speed Wind Dir Waves Ship Positions

Hoegh Transporter

Last reported at 2016-Aug-28 13:33 UTC. Time now 2016-Sep-29 03:18 UTC.
Position N 35°51' E 016°29'.
Warning: this ship's position is 31 days out of date.

Length 199 m; draft 9.4 m.

Type: Cargo ship. MMSI: 257712000.

Date/timePositionNaut miles runAvg speedWind from/ knotsBaromVisibWave heightAir tempDewpointWater temp
2016-Aug-28 13:33N 35°51' E 016°29'1716.6
2016-Aug-28 12:32N 35°56' E 016°09'1616.4
2016-Aug-28 11:34N 36°01' E 015°50'3316.4
2016-Aug-28 09:33N 36°11' E 015°12'1616.5
2016-Aug-28 08:34N 36°16' E 014°52'1616.4
2016-Aug-28 07:34N 36°21' E 014°33'1616.3
2016-Aug-28 06:34N 36°26' E 014°14'1616.4
2016-Aug-28 05:33N 36°31' E 013°54'1716.5
2016-Aug-28 04:33N 36°36' E 013°34'1616.5
2016-Aug-28 03:34N 36°41' E 013°15'1616.3
2016-Aug-28 02:33N 36°46' E 012°56'1716.1
2016-Aug-28 01:31N 36°51' E 012°36'8316.5
2016-Aug-27 20:28N 37°25' E 011°01'1516.1
2016-Aug-27 19:33N 37°28' E 010°42'2215.9
2016-Aug-27 18:10N 37°34' E 010°16'1016.4
2016-Aug-27 17:33N 37°34' E 010°03'1716.4
2016-Aug-27 16:33N 37°30' E 009°43'1616.4
2016-Aug-27 15:33N 37°26' E 009°23'3215.9
2016-Aug-27 13:32N 37°18' E 008°44'1615.9
2016-Aug-27 12:33N 37°17' E 008°24'14215.8
2016-Aug-27 03:33N 37°11' E 005°26'24116.1
2016-Aug-26 12:34N 36°40' E 000°27'5215.5
2016-Aug-26 09:11N 36°33' W 000°38'21615.8
2016-Aug-25 19:33N 36°01' W 005°02'1716.8
2016-Aug-25 18:34N 35°59' W 005°22'1614.6
2016-Aug-25 17:26N 35°54' W 005°42'1213.2
2016-Aug-25 16:33N 35°54' W 005°56'18414.2
2016-Aug-25 03:33N 36°11' W 009°43'1515.0
2016-Aug-25 02:33N 36°16' W 010°01'1514.9
2016-Aug-25 01:33N 36°21' W 010°19'1514.9
2016-Aug-25 00:33N 36°26' W 010°36'1514.7
2016-Aug-24 23:33N 36°30' W 010°53'1514.3
2016-Aug-24 22:32N 36°35' W 011°11'1814.6
2016-Aug-24 21:19N 36°41' W 011°31'1114.7
2016-Aug-24 20:33N 36°45' W 011°45'1514.6
2016-Aug-24 19:33N 36°49' W 012°02'1714.6
2016-Aug-24 18:25N 36°55' W 012°22'2914.8
2016-Aug-24 16:29N 37°03' W 012°56'1414.6
2016-Aug-24 15:32N 37°08' W 013°12'1714.7
2016-Aug-24 14:22N 37°14' W 013°33'57014.9
2016-Aug-23 00:10N 39°20' W 025°21'9914.9
2016-Aug-22 17:31N 39°32' W 027°28'1414.9
2016-Aug-22 16:33N 39°33' W 027°46'1514.7
2016-Aug-22 15:33N 39°35' W 028°05'1514.9
2016-Aug-22 14:33N 39°37' W 028°24'1515.0
2016-Aug-22 13:33N 39°39' W 028°44'1514.9
2016-Aug-22 12:33N 39°41' W 029°03'1515.0
2016-Aug-22 11:34N 39°43' W 029°22'1514.6
2016-Aug-22 10:33N 39°45' W 029°41'1514.8
2016-Aug-22 09:32N 39°46' W 030°01'7513.9
2016-Aug-22 04:09N 39°52' W 031°38'  
Track history (hours):
 
Tides and Currents Weather Stations Pressure Air Temp Water Temp Dewpoint Dewpoint Depression Visibility Wind Speed Wind Dir Waves Ship Positions

Hoegh Transporter

Last reported at 2016-Aug-28 13:33 UTC. Time now 2016-Sep-29 03:18 UTC.
Position N 35°51' E 016°29'.
Warning: this ship's position is 31 days out of date.

Length 199 m; draft 9.4 m.

Type: Cargo ship. MMSI: 257712000.

Date/timePositionNaut miles runAvg speedWind from/ knotsBaromVisibWave heightAir tempDewpointWater temp
2016-Aug-28 13:33N 35°51' E 016°29'1716.6
2016-Aug-28 12:32N 35°56' E 016°09'1616.4
2016-Aug-28 11:34N 36°01' E 015°50'3316.4
2016-Aug-28 09:33N 36°11' E 015°12'1616.5
2016-Aug-28 08:34N 36°16' E 014°52'1616.4
2016-Aug-28 07:34N 36°21' E 014°33'1616.3
2016-Aug-28 06:34N 36°26' E 014°14'1616.4
2016-Aug-28 05:33N 36°31' E 013°54'1716.5
2016-Aug-28 04:33N 36°36' E 013°34'1616.5
2016-Aug-28 03:34N 36°41' E 013°15'1616.3
2016-Aug-28 02:33N 36°46' E 012°56'1716.1
2016-Aug-28 01:31N 36°51' E 012°36'8316.5
2016-Aug-27 20:28N 37°25' E 011°01'1516.1
2016-Aug-27 19:33N 37°28' E 010°42'2215.9
2016-Aug-27 18:10N 37°34' E 010°16'1016.4
2016-Aug-27 17:33N 37°34' E 010°03'1716.4
2016-Aug-27 16:33N 37°30' E 009°43'1616.4
2016-Aug-27 15:33N 37°26' E 009°23'3215.9
2016-Aug-27 13:32N 37°18' E 008°44'1615.9
2016-Aug-27 12:33N 37°17' E 008°24'14215.8
2016-Aug-27 03:33N 37°11' E 005°26'24116.1
2016-Aug-26 12:34N 36°40' E 000°27'5215.5
2016-Aug-26 09:11N 36°33' W 000°38'21615.8
2016-Aug-25 19:33N 36°01' W 005°02'1716.8
2016-Aug-25 18:34N 35°59' W 005°22'1614.6
2016-Aug-25 17:26N 35°54' W 005°42'1213.2
2016-Aug-25 16:33N 35°54' W 005°56'18414.2
2016-Aug-25 03:33N 36°11' W 009°43'1515.0
2016-Aug-25 02:33N 36°16' W 010°01'1514.9
2016-Aug-25 01:33N 36°21' W 010°19'1514.9
2016-Aug-25 00:33N 36°26' W 010°36'1514.7
2016-Aug-24 23:33N 36°30' W 010°53'1514.3
2016-Aug-24 22:32N 36°35' W 011°11'1814.6
2016-Aug-24 21:19N 36°41' W 011°31'1114.7
2016-Aug-24 20:33N 36°45' W 011°45'1514.6
2016-Aug-24 19:33N 36°49' W 012°02'1714.6
2016-Aug-24 18:25N 36°55' W 012°22'2914.8
2016-Aug-24 16:29N 37°03' W 012°56'1414.6
2016-Aug-24 15:32N 37°08' W 013°12'1714.7
2016-Aug-24 14:22N 37°14' W 013°33'57014.9
2016-Aug-23 00:10N 39°20' W 025°21'9914.9
2016-Aug-22 17:31N 39°32' W 027°28'1414.9
2016-Aug-22 16:33N 39°33' W 027°46'1514.7
2016-Aug-22 15:33N 39°35' W 028°05'1514.9
2016-Aug-22 14:33N 39°37' W 028°24'1515.0
2016-Aug-22 13:33N 39°39' W 028°44'1514.9
2016-Aug-22 12:33N 39°41' W 029°03'1515.0
2016-Aug-22 11:34N 39°43' W 029°22'1514.6
2016-Aug-22 10:33N 39°45' W 029°41'1514.8
2016-Aug-22 09:32N 39°46' W 030°01'7513.9
2016-Aug-22 04:09N 39°52' W 031°38'  

Dump ship's entire track history